Terminal Aerodrome Forecast
Issued by NWS Mt. Holly, NJ

Home | Current Version | Previous Version | Text Only | Print | Product List | Glossary On
Versions: 1 2 3 4 5 6 7 8 9 10 11 12 13 14
000
FTUS41 KPHI 281700
TAFILG
TAF
KILG 281740Z 2818/2918 26005KT P6SM SCT050 OVC100
     FM281900 29007KT P6SM -SHRA OVC050
     FM290200 32007KT P6SM OVC100
     FM291100 36008KT P6SM OVC150=

USA.gov is the U.S. government's official web portal to all federal, state and local government web resources and services.